VNKT/KTM METAR and TAF weather

Enter ICAO airport designator
Station Type Date Time Source
VNKT METAR 2022/06/30 14:20 UTC NOAA

VNKT 301420Z 25004KT 7000 FEW015 SCT030 BKN100 23/19 Q1009 NOSIG


Station Type Date Time Source
VNKT Decoded METAR 2022/06/30 14:20 UTC NOAA

Kathmandu Airport, Nepal (VNKT) 27-42N 085-22E 1337M
Jun 30, 2022 - 10:20 AM EDT / 2022.06.30 1420 UTC
Wind: from the WSW (250 degrees) at 5 MPH (4 KT):0
Visibility: 4 mile(s):0
Sky conditions: mostly cloudy
Temperature: 73 F (23 C)
Dew Point: 66 F (19 C)
Relative Humidity: 78%
Pressure (altimeter): 29.80 in. Hg (1009 hPa)
ob: VNKT 301420Z 25004KT 7000 FEW015 SCT030 BKN100 23/19 Q1009 NOSIG
cycle: 14

Station Type Date Time Source
VNKT TAF 2022/06/30 12:45 UTC NOAA

TAF TAF VNKT 301100Z 3012/0112 22007KT 8000 FEW0020 SCT030
BECMG 3014/3015 12004KT 7000 FEW015 SCT030 BKN100
BECMG 0100/0102 VRB02KT 5000 -RA/BR FEW010 SCT030 BKN100
BECMG 0104/0105 11004KT 6000 FEW015 SCT030 BKN100
BECMG 0107/0109 24008KT 8000 FEW020 SCT025 BKN100 PROB40 0108/0112 VRB12KT 4000 -TSRA FEW025CB OVC090

Example: see airport list